createdAt,value
2018-06-22T00:00:51.358Z,0.00
2018-06-22T00:01:51.374Z,0.00
2018-06-22T00:02:51.399Z,0.00
2018-06-22T00:03:51.409Z,0.00
2018-06-22T00:04:51.422Z,0.00
2018-06-22T00:05:51.456Z,0.00
2018-06-22T00:06:51.466Z,0.00
2018-06-22T00:07:51.494Z,0.00
2018-06-22T00:08:51.507Z,0.00
2018-06-22T00:09:51.517Z,0.00
2018-06-22T00:10:51.543Z,0.00
2018-06-22T00:11:51.560Z,0.00
2018-06-22T00:12:51.583Z,0.00
2018-06-22T00:13:51.593Z,0.00
2018-06-22T00:14:51.609Z,0.00
2018-06-22T00:15:51.637Z,0.00
2018-06-22T00:16:51.649Z,0.00
2018-06-22T00:17:51.679Z,0.00
2018-06-22T00:18:51.704Z,0.00
2018-06-22T00:19:51.700Z,0.00
2018-06-22T00:20:51.728Z,0.00
2018-06-22T00:21:51.743Z,0.00
2018-06-22T00:22:51.756Z,0.00
2018-06-22T00:23:51.785Z,0.00
2018-06-22T00:24:51.798Z,0.00
2018-06-22T00:25:51.821Z,0.00
2018-06-22T00:26:51.834Z,0.00
2018-06-22T00:27:51.849Z,0.00
2018-06-22T00:28:51.874Z,0.00
2018-06-22T00:29:51.885Z,0.00
2018-06-22T00:30:51.910Z,0.00
2018-06-22T00:31:51.924Z,0.00
2018-06-22T00:32:51.939Z,0.00
2018-06-22T00:33:51.969Z,0.00
2018-06-22T00:34:51.995Z,0.00
2018-06-22T00:35:52.004Z,0.00
2018-06-22T00:36:52.019Z,0.00
2018-06-22T00:37:52.036Z,0.00
2018-06-22T00:38:52.061Z,0.00
2018-06-22T00:39:52.073Z,0.00
2018-06-22T00:40:52.099Z,0.00
2018-06-22T00:41:52.120Z,0.00
2018-06-22T00:42:52.145Z,0.00
2018-06-22T00:43:52.158Z,0.00
2018-06-22T00:44:52.166Z,0.00
2018-06-22T00:45:52.191Z,0.00
2018-06-22T00:46:52.202Z,0.00
2018-06-22T00:47:52.226Z,0.00
2018-06-22T00:48:52.239Z,0.00
2018-06-22T00:49:52.257Z,0.00
2018-06-22T00:50:52.283Z,0.00
2018-06-22T00:51:52.291Z,0.00
2018-06-22T00:52:52.306Z,0.00
2018-06-22T00:53:52.335Z,0.00
2018-06-22T00:54:52.350Z,0.00
2018-06-22T00:55:52.377Z,0.00
2018-06-22T00:56:52.408Z,0.00
2018-06-22T00:57:52.400Z,0.00
2018-06-22T00:58:52.426Z,0.00
2018-06-22T00:59:52.442Z,0.00
2018-06-22T01:00:52.468Z,0.00
2018-06-22T01:01:52.478Z,0.00
2018-06-22T01:02:52.492Z,0.00
2018-06-22T01:03:52.521Z,0.00
2018-06-22T01:04:52.531Z,0.00
2018-06-22T01:05:52.561Z,0.00
2018-06-22T01:06:52.576Z,0.00
2018-06-22T01:07:52.584Z,0.00
2018-06-22T01:08:52.612Z,0.00
2018-06-22T01:09:52.628Z,0.00
2018-06-22T01:10:52.654Z,0.00
2018-06-22T01:11:52.665Z,0.00
2018-06-22T01:12:52.679Z,0.00
2018-06-22T01:13:52.701Z,0.00
2018-06-22T01:14:52.715Z,0.00
2018-06-22T01:15:52.736Z,0.00
2018-06-22T01:16:52.760Z,0.00
2018-06-22T01:17:52.769Z,0.00
2018-06-22T01:18:52.795Z,0.00
2018-06-22T01:19:52.806Z,0.00
2018-06-22T01:20:52.820Z,0.00
2018-06-22T01:21:52.849Z,0.00
2018-06-22T01:22:52.864Z,0.00
2018-06-22T01:23:52.889Z,0.00
2018-06-22T01:24:52.902Z,0.00
2018-06-22T01:25:52.916Z,0.00
2018-06-22T01:26:52.939Z,0.00
2018-06-22T01:27:52.953Z,0.00
2018-06-22T01:28:52.970Z,0.00
2018-06-22T01:29:52.998Z,0.00
2018-06-22T01:30:53.011Z,0.00
2018-06-22T01:31:53.043Z,0.00
2018-06-22T01:32:53.044Z,0.00
2018-06-22T01:33:53.075Z,0.00
2018-06-22T01:34:53.088Z,0.00
2018-06-22T01:35:53.107Z,0.00
2018-06-22T01:36:53.116Z,0.00
2018-06-22T01:37:53.137Z,0.00
2018-06-22T01:38:53.152Z,0.00
2018-06-22T01:39:53.170Z,0.00
2018-06-22T01:40:53.195Z,0.00
2018-06-22T01:41:53.205Z,0.00
2018-06-22T01:42:53.231Z,0.00
2018-06-22T01:43:53.241Z,0.00
2018-06-22T01:44:53.258Z,0.00
2018-06-22T01:45:53.285Z,0.00
2018-06-22T01:46:53.298Z,0.00
2018-06-22T01:47:53.312Z,0.00
2018-06-22T01:48:53.337Z,0.00
2018-06-22T01:49:53.366Z,0.00
2018-06-22T01:50:53.379Z,0.00
2018-06-22T01:51:53.391Z,0.00
2018-06-22T01:52:53.404Z,0.00
2018-06-22T01:53:53.426Z,4.00
2018-06-22T01:54:53.440Z,4.00
2018-06-22T01:55:53.457Z,4.00
2018-06-22T01:56:53.485Z,0.00
2018-06-22T01:57:53.492Z,0.00
2018-06-22T01:58:53.519Z,4.00
2018-06-22T01:59:53.535Z,4.00
2018-06-22T02:00:53.549Z,4.00
2018-06-22T02:01:53.579Z,4.00
2018-06-22T02:02:53.591Z,4.00
2018-06-22T02:03:53.599Z,4.00
2018-06-22T02:04:53.629Z,8.00
2018-06-22T02:05:53.679Z,4.00
2018-06-22T02:06:53.661Z,8.00
2018-06-22T02:07:53.684Z,4.00
2018-06-22T02:08:53.697Z,8.00
2018-06-22T02:09:53.710Z,8.00
2018-06-22T02:10:53.733Z,12.00
2018-06-22T02:11:53.749Z,12.00
2018-06-22T02:12:53.775Z,12.00
2018-06-22T02:13:53.786Z,12.00
2018-06-22T02:14:53.799Z,16.00
2018-06-22T02:15:53.822Z,16.00
2018-06-22T02:16:53.836Z,20.00
2018-06-22T02:17:53.854Z,20.00
2018-06-22T02:18:53.882Z,24.00
2018-06-22T02:19:53.893Z,28.00
2018-06-22T02:20:53.904Z,32.00
2018-06-22T02:21:53.948Z,32.00
2018-06-22T02:22:53.948Z,32.00
2018-06-22T02:23:53.960Z,36.00
2018-06-22T02:24:53.985Z,40.00
2018-06-22T02:25:53.996Z,44.00
2018-06-22T02:26:54.010Z,48.00
2018-06-22T02:27:54.039Z,56.00
2018-06-22T02:28:54.055Z,60.00
2018-06-22T02:29:54.076Z,68.00
2018-06-22T02:30:54.089Z,76.00
2018-06-22T02:31:54.100Z,76.00
2018-06-22T02:32:54.126Z,84.00
2018-06-22T02:33:54.143Z,96.00
2018-06-22T02:34:54.157Z,104.00
2018-06-22T02:35:54.181Z,120.00
2018-06-22T02:36:54.197Z,124.00
2018-06-22T02:37:54.232Z,128.00
2018-06-22T02:38:54.239Z,152.00
2018-06-22T02:39:54.250Z,164.00
2018-06-22T02:40:54.288Z,176.00
2018-06-22T02:41:54.285Z,180.00
2018-06-22T02:42:54.298Z,184.00
2018-06-22T02:43:54.337Z,172.00
2018-06-22T02:44:54.342Z,172.00
2018-06-22T02:45:54.352Z,196.00
2018-06-22T02:46:54.378Z,204.00
2018-06-22T02:47:54.392Z,216.00
2018-06-22T02:48:54.420Z,220.00
2018-06-22T02:49:54.450Z,236.00
2018-06-22T02:50:54.449Z,252.00
2018-06-22T02:51:54.471Z,256.00
2018-06-22T02:52:54.496Z,260.00
2018-06-22T02:53:54.502Z,248.00
2018-06-22T02:54:54.527Z,248.00
2018-06-22T02:55:54.541Z,276.00
2018-06-22T02:56:54.569Z,292.00
2018-06-22T02:57:54.578Z,288.00
2018-06-22T02:58:54.591Z,332.00
2018-06-22T02:59:54.635Z,404.00
2018-06-22T03:00:54.635Z,416.00
2018-06-22T03:01:54.644Z,424.00
2018-06-22T03:02:54.668Z,420.00
2018-06-22T03:03:54.681Z,464.00
2018-06-22T03:04:54.707Z,480.00
2018-06-22T03:05:54.725Z,608.00
2018-06-22T03:06:54.739Z,616.00
2018-06-22T03:07:54.763Z,632.00
2018-06-22T03:08:54.790Z,796.00
2018-06-22T03:09:54.806Z,872.00
2018-06-22T03:10:54.819Z,848.00
2018-06-22T03:11:54.829Z,756.00
2018-06-22T03:12:54.856Z,796.00
2018-06-22T03:13:54.865Z,996.00
2018-06-22T03:14:54.879Z,1032.00
2018-06-22T03:15:54.912Z,992.00
2018-06-22T03:16:54.922Z,984.00
2018-06-22T03:17:54.949Z,824.00
2018-06-22T03:18:54.958Z,848.00
2018-06-22T03:19:54.980Z,1040.00
2018-06-22T03:20:55.000Z,1140.00
2018-06-22T03:21:55.017Z,1096.00
2018-06-22T03:22:55.043Z,1040.00
2018-06-22T03:23:55.051Z,968.00
2018-06-22T03:24:55.065Z,840.00
2018-06-22T03:25:55.093Z,740.00
2018-06-22T03:26:55.108Z,812.00
2018-06-22T03:27:55.138Z,900.00
2018-06-22T03:28:55.148Z,1064.00
2018-06-22T03:29:55.158Z,1040.00
2018-06-22T03:30:55.184Z,972.00
2018-06-22T03:31:55.202Z,976.00
2018-06-22T03:32:55.223Z,860.00
2018-06-22T03:33:55.241Z,892.00
2018-06-22T03:34:55.254Z,928.00
2018-06-22T03:35:55.278Z,988.00
2018-06-22T03:36:55.292Z,996.00
2018-06-22T03:37:55.314Z,1200.00
2018-06-22T03:38:55.340Z,1272.00
2018-06-22T03:39:55.347Z,1040.00
2018-06-22T03:40:55.373Z,924.00
2018-06-22T03:41:55.382Z,876.00
2018-06-22T03:42:55.407Z,756.00
2018-06-22T03:43:55.424Z,800.00
2018-06-22T03:44:55.450Z,976.00
2018-06-22T03:45:55.475Z,1128.00
2018-06-22T03:46:55.477Z,1112.00
2018-06-22T03:47:55.497Z,1192.00
2018-06-22T03:48:55.511Z,1272.00
2018-06-22T03:49:55.554Z,1460.00
2018-06-22T03:50:55.555Z,1444.00
2018-06-22T03:51:55.570Z,1584.00
2018-06-22T03:52:55.597Z,1596.00
2018-06-22T03:53:55.607Z,1924.00
2018-06-22T03:54:55.634Z,2144.00
2018-06-22T03:55:55.646Z,2436.00
2018-06-22T03:56:55.677Z,2472.00
2018-06-22T03:57:55.683Z,2584.00
2018-06-22T03:58:55.695Z,2624.00
2018-06-22T03:59:55.723Z,2596.00
2018-06-22T04:00:55.742Z,2444.00
2018-06-22T04:01:55.772Z,2636.00
2018-06-22T04:02:55.781Z,2916.00
2018-06-22T04:03:55.790Z,3072.00
2018-06-22T04:04:55.816Z,3484.00
2018-06-22T04:05:55.844Z,3112.00
2018-06-22T04:06:55.860Z,2344.00
2018-06-22T04:07:55.874Z,2008.00
2018-06-22T04:08:55.921Z,2348.00
2018-06-22T04:09:55.907Z,2340.00
2018-06-22T04:10:55.921Z,2360.00
2018-06-22T04:11:55.952Z,2512.00
2018-06-22T04:12:55.968Z,1868.00
2018-06-22T04:13:55.987Z,1604.00
2018-06-22T04:14:56.001Z,1772.00
2018-06-22T04:15:56.028Z,1888.00
2018-06-22T04:16:56.039Z,2308.00
2018-06-22T04:17:56.068Z,2396.00
2018-06-22T04:18:56.082Z,2240.00
2018-06-22T04:19:56.155Z,1908.00
2018-06-22T04:20:56.118Z,2084.00
2018-06-22T04:21:56.138Z,2248.00
2018-06-22T04:22:56.160Z,3460.00
2018-06-22T04:23:56.176Z,3872.00
2018-06-22T04:24:56.202Z,3240.00
2018-06-22T04:25:56.212Z,2908.00
2018-06-22T04:26:56.224Z,2652.00
2018-06-22T04:27:56.253Z,2824.00
2018-06-22T04:28:56.266Z,3468.00
2018-06-22T04:29:56.288Z,4156.00
2018-06-22T04:30:56.301Z,4332.00
2018-06-22T04:31:56.329Z,4124.00
2018-06-22T04:32:56.344Z,3976.00
2018-06-22T04:33:56.374Z,4680.00
2018-06-22T04:34:56.387Z,5460.00
2018-06-22T04:35:56.407Z,5464.00
2018-06-22T04:36:56.424Z,4620.00
2018-06-22T04:37:56.438Z,3712.00
2018-06-22T04:38:56.467Z,3208.00
2018-06-22T04:39:56.480Z,3180.00
2018-06-22T04:40:56.505Z,3556.00
2018-06-22T04:41:56.514Z,3548.00
2018-06-22T04:42:56.540Z,3304.00
2018-06-22T04:43:56.556Z,3140.00
2018-06-22T04:44:56.583Z,3296.00
2018-06-22T04:45:56.592Z,4124.00
2018-06-22T04:46:56.616Z,3800.00
2018-06-22T04:47:56.633Z,3476.00
2018-06-22T04:48:56.659Z,3412.00
2018-06-22T04:49:56.676Z,4008.00
2018-06-22T04:50:56.689Z,5128.00
2018-06-22T04:51:56.713Z,5480.00
2018-06-22T04:52:56.725Z,3864.00
2018-06-22T04:53:56.755Z,4364.00
2018-06-22T04:54:56.769Z,4140.00
2018-06-22T04:55:56.794Z,4420.00
2018-06-22T04:56:56.806Z,4208.00
2018-06-22T04:57:56.827Z,4756.00
2018-06-22T04:58:56.842Z,5028.00
2018-06-22T04:59:56.874Z,6116.00
2018-06-22T05:00:56.887Z,5876.00
2018-06-22T05:01:56.908Z,5940.00
2018-06-22T05:02:56.924Z,4972.00
2018-06-22T05:03:56.947Z,4244.00
2018-06-22T05:04:56.974Z,3976.00
2018-06-22T05:05:56.990Z,4896.00
2018-06-22T05:06:57.004Z,5076.00
2018-06-22T05:07:57.013Z,4596.00
2018-06-22T05:08:57.038Z,4112.00
2018-06-22T05:09:57.058Z,3144.00
2018-06-22T05:10:57.083Z,2420.00
2018-06-22T05:11:57.110Z,2196.00
2018-06-22T05:12:57.123Z,2072.00
2018-06-22T05:13:57.132Z,2496.00
2018-06-22T05:14:57.159Z,2976.00
2018-06-22T05:15:57.174Z,3344.00
2018-06-22T05:16:57.200Z,3232.00
2018-06-22T05:17:57.210Z,4124.00
2018-06-22T05:18:57.236Z,4352.00
2018-06-22T05:19:57.252Z,4604.00
2018-06-22T05:20:57.277Z,4888.00
2018-06-22T05:21:57.297Z,5248.00
2018-06-22T05:22:57.322Z,6544.00
2018-06-22T05:23:57.329Z,7928.00
2018-06-22T05:24:57.356Z,9784.00
2018-06-22T05:25:57.375Z,9116.00
2018-06-22T05:26:57.400Z,9900.00
2018-06-22T05:27:57.410Z,9868.00
2018-06-22T05:28:57.439Z,10232.00
2018-06-22T05:29:57.446Z,9416.00
2018-06-22T05:30:57.473Z,8828.00
2018-06-22T05:31:57.491Z,9932.00
2018-06-22T05:32:57.521Z,11404.00
2018-06-22T05:33:57.530Z,10844.00
2018-06-22T05:34:57.552Z,12116.00
2018-06-22T05:35:57.564Z,12184.00
2018-06-22T05:36:57.591Z,11716.00
2018-06-22T05:37:57.608Z,12696.00
2018-06-22T05:38:57.635Z,12492.00
2018-06-22T05:39:57.648Z,12532.00
2018-06-22T05:40:57.687Z,12340.00
2018-06-22T05:41:57.695Z,11048.00
2018-06-22T05:42:57.709Z,10196.00
2018-06-22T05:43:57.737Z,11692.00
2018-06-22T05:44:57.750Z,13748.00
2018-06-22T05:45:57.780Z,11980.00
2018-06-22T05:46:57.796Z,11752.00
2018-06-22T05:47:57.815Z,9384.00
2018-06-22T05:48:57.840Z,11248.00
2018-06-22T05:49:57.856Z,11388.00
2018-06-22T05:50:57.909Z,12304.00
2018-06-22T05:51:57.901Z,12668.00
2018-06-22T05:52:57.924Z,12276.00
2018-06-22T05:53:57.933Z,11672.00
2018-06-22T05:54:57.972Z,13060.00
2018-06-22T05:55:57.978Z,15848.00
2018-06-22T05:56:58.004Z,17216.00
2018-06-22T05:57:58.025Z,10628.00
2018-06-22T05:58:58.038Z,7524.00
2018-06-22T05:59:58.062Z,8604.00
2018-06-22T06:00:58.077Z,9892.00
2018-06-22T06:01:58.107Z,7912.00
2018-06-22T06:02:58.119Z,6476.00
2018-06-22T06:03:58.143Z,6600.00
2018-06-22T06:04:58.168Z,7588.00
2018-06-22T06:05:58.188Z,8300.00
2018-06-22T06:06:58.213Z,8660.00
2018-06-22T06:07:58.226Z,8652.00
2018-06-22T06:08:58.263Z,7516.00
2018-06-22T06:09:58.271Z,8636.00
2018-06-22T06:10:58.285Z,11716.00
2018-06-22T06:11:58.316Z,14788.00
2018-06-22T06:12:58.329Z,13432.00
2018-06-22T06:13:58.350Z,11008.00
2018-06-22T06:14:58.364Z,8984.00
2018-06-22T06:15:58.392Z,8400.00
2018-06-22T06:16:58.418Z,8488.00
2018-06-22T06:17:58.438Z,10548.00
2018-06-22T06:18:58.461Z,10596.00
2018-06-22T06:19:58.522Z,7576.00
2018-06-22T06:20:58.496Z,5280.00
2018-06-22T06:21:58.525Z,4668.00
2018-06-22T06:22:58.555Z,5704.00
2018-06-22T06:23:58.566Z,7064.00
2018-06-22T06:24:58.580Z,9556.00
2018-06-22T06:25:58.627Z,12180.00
2018-06-22T06:26:58.616Z,12788.00
2018-06-22T06:27:58.645Z,10344.00
2018-06-22T06:28:58.670Z,11704.00
2018-06-22T06:29:58.681Z,16492.00
2018-06-22T06:30:58.706Z,16496.00
2018-06-22T06:31:58.719Z,17168.00
2018-06-22T06:32:58.744Z,19328.00
2018-06-22T06:33:58.774Z,16616.00
2018-06-22T06:34:58.788Z,12852.00
2018-06-22T06:35:58.812Z,12060.00
2018-06-22T06:36:58.837Z,12140.00
2018-06-22T06:37:58.855Z,9320.00
2018-06-22T06:38:58.882Z,5612.00
2018-06-22T06:39:58.904Z,4720.00
2018-06-22T06:40:58.918Z,6028.00
2018-06-22T06:41:59.016Z,5644.00
2018-06-22T06:42:58.953Z,4864.00
2018-06-22T06:43:59.000Z,7532.00
2018-06-22T06:44:59.000Z,9708.00
2018-06-22T06:45:59.024Z,13308.00
2018-06-22T06:46:59.049Z,11412.00
2018-06-22T06:47:59.087Z,10136.00
2018-06-22T06:48:59.084Z,8464.00
2018-06-22T06:49:59.114Z,9148.00
2018-06-22T06:50:59.129Z,12076.00
2018-06-22T06:51:59.155Z,13324.00
2018-06-22T06:52:59.165Z,16552.00
2018-06-22T06:53:59.201Z,20352.00
2018-06-22T06:54:59.222Z,21184.00
2018-06-22T06:55:59.234Z,20864.00
2018-06-22T06:56:59.260Z,20576.00
2018-06-22T06:57:59.281Z,20672.00
2018-06-22T06:58:59.295Z,21440.00
2018-06-22T06:59:59.324Z,20576.00
2018-06-22T07:00:59.338Z,19456.00
2018-06-22T07:01:59.361Z,18656.00
2018-06-22T07:02:59.386Z,13212.00
2018-06-22T07:03:59.404Z,10192.00
2018-06-22T07:04:59.429Z,7920.00
2018-06-22T07:05:59.457Z,10448.00
2018-06-22T07:06:59.482Z,10396.00
2018-06-22T07:07:59.491Z,7500.00
2018-06-22T07:08:59.517Z,6592.00
2018-06-22T07:09:59.534Z,5200.00
2018-06-22T07:10:59.559Z,3952.00
2018-06-22T07:11:59.588Z,3408.00
2018-06-22T07:12:59.607Z,3064.00
2018-06-22T07:13:59.624Z,2616.00
2018-06-22T07:14:59.650Z,2144.00
2018-06-22T07:15:59.667Z,1908.00
2018-06-22T07:16:59.693Z,2500.00
2018-06-22T07:17:59.718Z,3756.00
2018-06-22T07:18:59.729Z,5040.00
2018-06-22T07:19:59.755Z,7004.00
2018-06-22T07:20:59.779Z,10764.00
2018-06-22T07:21:59.808Z,14316.00
2018-06-22T07:22:59.822Z,16380.00
2018-06-22T07:23:59.845Z,17240.00
2018-06-22T07:24:59.860Z,17176.00
2018-06-22T07:25:59.890Z,17024.00
2018-06-22T07:26:59.902Z,18112.00
2018-06-22T07:27:59.926Z,19872.00
2018-06-22T07:28:59.953Z,22016.00
2018-06-22T07:29:59.964Z,23360.00
2018-06-22T07:30:59.989Z,22976.00
2018-06-22T07:32:00.007Z,21184.00
2018-06-22T07:33:00.034Z,18912.00
2018-06-22T07:34:00.053Z,18016.00
2018-06-22T07:35:00.068Z,17472.00
2018-06-22T07:36:00.156Z,17824.00
2018-06-22T07:37:00.122Z,15160.00
2018-06-22T07:38:00.138Z,14904.00
2018-06-22T07:39:00.164Z,13608.00
2018-06-22T07:40:00.171Z,15392.00
2018-06-22T07:41:00.198Z,14716.00
2018-06-22T07:42:00.229Z,9288.00
2018-06-22T07:43:00.258Z,11008.00
2018-06-22T07:44:00.376Z,15188.00
2018-06-22T07:45:00.294Z,17824.00
2018-06-22T07:46:00.305Z,18464.00
2018-06-22T07:47:00.331Z,16772.00
2018-06-22T07:48:00.355Z,14836.00
2018-06-22T07:49:00.380Z,12648.00
2018-06-22T07:50:00.397Z,11656.00
2018-06-22T07:51:00.430Z,11708.00
2018-06-22T07:52:00.440Z,12168.00
2018-06-22T07:53:00.466Z,12104.00
2018-06-22T07:54:00.476Z,11668.00
2018-06-22T07:55:00.514Z,11536.00
2018-06-22T07:56:00.541Z,12268.00
2018-06-22T07:57:00.545Z,13640.00
2018-06-22T07:58:00.574Z,14888.00
2018-06-22T07:59:00.590Z,16108.00
2018-06-22T08:00:00.606Z,18208.00
2018-06-22T08:01:00.631Z,19808.00
2018-06-22T08:02:00.661Z,19136.00
2018-06-22T08:03:00.680Z,20288.00
2018-06-22T08:04:00.696Z,19552.00
2018-06-22T08:05:00.710Z,16712.00
2018-06-22T08:06:00.740Z,12800.00
2018-06-22T08:07:00.765Z,10604.00
2018-06-22T08:08:00.778Z,10716.00
2018-06-22T08:09:00.804Z,9072.00
2018-06-22T08:10:00.826Z,6948.00
2018-06-22T08:11:00.841Z,7040.00
2018-06-22T08:12:00.871Z,8952.00
2018-06-22T08:13:00.897Z,11020.00
2018-06-22T08:14:00.907Z,12664.00
2018-06-22T08:15:00.937Z,13136.00
2018-06-22T08:16:00.946Z,13912.00
2018-06-22T08:17:00.969Z,11988.00
2018-06-22T08:18:01.000Z,9956.00
2018-06-22T08:19:01.025Z,11216.00
2018-06-22T08:20:01.038Z,12748.00
2018-06-22T08:21:01.061Z,13588.00
2018-06-22T08:22:01.078Z,12292.00
2018-06-22T08:23:01.107Z,11556.00
2018-06-22T08:24:01.135Z,11896.00
2018-06-22T08:25:01.150Z,11636.00
2018-06-22T08:26:01.168Z,12672.00
2018-06-22T08:27:01.196Z,13320.00
2018-06-22T08:28:01.209Z,12192.00
2018-06-22T08:29:01.235Z,10148.00
2018-06-22T08:30:01.257Z,9564.00
2018-06-22T08:31:01.273Z,9108.00
2018-06-22T08:32:01.299Z,8760.00
2018-06-22T08:33:01.314Z,8096.00
2018-06-22T08:34:01.342Z,8996.00
2018-06-22T08:35:01.456Z,12780.00
2018-06-22T08:36:01.378Z,15632.00
2018-06-22T08:37:01.404Z,19264.00
2018-06-22T08:38:01.435Z,21984.00
2018-06-22T08:39:01.450Z,23520.00
2018-06-22T08:40:01.470Z,22528.00
2018-06-22T08:41:01.496Z,20864.00
2018-06-22T08:42:01.690Z,18944.00
2018-06-22T08:43:01.532Z,18816.00
2018-06-22T08:44:01.565Z,18912.00
2018-06-22T08:45:01.577Z,19104.00
2018-06-22T08:46:01.601Z,17984.00
2018-06-22T08:47:01.640Z,15392.00
2018-06-22T08:48:01.638Z,13176.00
2018-06-22T08:49:01.721Z,10392.00
2018-06-22T08:50:01.694Z,9068.00
2018-06-22T08:51:01.706Z,8480.00
2018-06-22T08:52:01.730Z,7440.00
2018-06-22T08:53:01.757Z,6456.00
2018-06-22T08:54:01.775Z,6052.00
2018-06-22T08:55:01.801Z,8324.00
2018-06-22T08:56:01.827Z,13040.00
2018-06-22T08:57:01.838Z,19232.00
2018-06-22T08:58:01.859Z,24800.00
2018-06-22T08:59:01.884Z,27648.00
2018-06-22T09:00:01.919Z,28352.00
2018-06-22T09:01:01.931Z,28192.00
2018-06-22T09:02:01.956Z,31456.00
2018-06-22T09:03:01.979Z,35968.00
2018-06-22T09:04:01.989Z,38848.00
2018-06-22T09:05:02.015Z,36256.00
2018-06-22T09:06:02.045Z,32416.00
2018-06-22T09:07:02.059Z,31840.00
2018-06-22T09:08:02.082Z,39072.00
2018-06-22T09:09:02.111Z,87872.00
2018-06-22T09:10:02.139Z,36960.00
2018-06-22T09:11:02.150Z,28672.00
2018-06-22T09:12:02.179Z,118944.00
2018-06-22T09:13:02.205Z,57344.00
2018-06-22T09:14:02.226Z,108672.00
2018-06-22T09:15:02.252Z,115776.00
2018-06-22T09:16:02.279Z,37824.00
2018-06-22T09:17:02.319Z,31680.00
2018-06-22T09:18:02.328Z,127648.00
2018-06-22T09:19:02.342Z,56448.00
2018-06-22T09:20:02.371Z,15376.00
2018-06-22T09:21:02.396Z,8920.00
2018-06-22T09:22:02.440Z,5668.00
2018-06-22T09:23:02.453Z,4120.00
2018-06-22T09:24:02.487Z,4224.00
2018-06-22T09:25:02.512Z,4992.00
2018-06-22T09:26:02.543Z,6044.00
2018-06-22T09:27:02.556Z,7524.00
2018-06-22T09:28:02.579Z,9428.00
2018-06-22T09:29:02.605Z,11436.00
2018-06-22T09:30:02.627Z,13124.00
2018-06-22T09:31:02.653Z,15116.00
2018-06-22T09:32:02.684Z,16724.00
2018-06-22T09:33:02.710Z,17600.00
2018-06-22T09:34:02.721Z,17664.00
2018-06-22T09:35:02.750Z,17036.00
2018-06-22T09:36:02.774Z,16212.00
2018-06-22T09:37:02.797Z,15732.00
2018-06-22T09:38:02.826Z,15452.00
2018-06-22T09:39:02.840Z,15468.00
2018-06-22T09:40:02.862Z,15776.00
2018-06-22T09:41:02.887Z,15972.00
2018-06-22T09:42:02.905Z,16348.00
2018-06-22T09:43:02.934Z,17108.00
2018-06-22T09:44:02.958Z,17856.00
2018-06-22T09:45:03.070Z,17856.00
2018-06-22T09:46:02.994Z,17376.00
2018-06-22T09:47:03.021Z,17216.00
2018-06-22T09:48:03.037Z,17952.00
2018-06-22T09:49:03.061Z,19296.00
2018-06-22T09:50:03.084Z,20896.00
2018-06-22T09:51:03.098Z,22816.00
2018-06-22T09:52:03.125Z,24288.00
2018-06-22T09:53:03.192Z,25984.00
2018-06-22T09:54:03.168Z,30368.00
2018-06-22T09:55:03.227Z,35168.00
2018-06-22T09:56:03.210Z,47296.00
2018-06-22T09:57:03.235Z,57760.00
2018-06-22T09:58:03.256Z,39168.00
2018-06-22T09:59:03.282Z,35488.00
2018-06-22T10:00:03.293Z,32768.00
2018-06-22T10:01:03.318Z,32640.00
2018-06-22T10:02:03.340Z,31296.00
2018-06-22T10:03:03.365Z,31136.00
2018-06-22T10:04:03.388Z,28896.00
2018-06-22T10:05:03.402Z,30848.00
2018-06-22T10:06:03.443Z,27072.00
2018-06-22T10:07:03.456Z,27360.00
2018-06-22T10:08:03.468Z,62240.00
2018-06-22T10:09:03.494Z,112480.00
2018-06-22T10:10:03.516Z,110240.00
2018-06-22T10:11:03.541Z,112160.00
2018-06-22T10:12:03.557Z,112640.00
2018-06-22T10:13:03.584Z,111488.00
2018-06-22T10:14:03.605Z,113664.00
2018-06-22T10:15:03.632Z,113728.00
2018-06-22T10:16:03.661Z,114912.00
2018-06-22T10:17:03.686Z,117056.00
2018-06-22T10:18:03.716Z,119744.00
2018-06-22T10:19:03.745Z,122304.00
2018-06-22T10:20:03.762Z,123744.00
2018-06-22T10:21:03.803Z,123872.00
2018-06-22T10:22:03.831Z,125472.00
2018-06-22T10:23:03.858Z,126048.00
2018-06-22T10:24:03.896Z,79680.00
2018-06-22T10:25:03.923Z,46400.00
2018-06-22T10:26:03.945Z,57984.00
2018-06-22T10:27:04.032Z,53344.00
2018-06-22T10:28:04.026Z,30944.00
2018-06-22T10:29:04.052Z,36960.00
2018-06-22T10:30:04.073Z,70400.00
2018-06-22T10:31:04.112Z,36448.00
2018-06-22T10:32:04.137Z,36576.00
2018-06-22T10:33:04.164Z,37120.00
2018-06-22T10:34:04.269Z,40448.00
2018-06-22T10:35:04.230Z,58528.00
2018-06-22T10:36:04.268Z,59264.00
2018-06-22T10:37:04.293Z,38880.00
2018-06-22T10:38:04.323Z,27328.00
2018-06-22T10:39:04.349Z,27360.00
2018-06-22T10:40:04.385Z,33248.00
2018-06-22T10:41:04.410Z,142976.00
2018-06-22T10:42:04.445Z,105088.00
2018-06-22T10:43:04.460Z,130656.00
2018-06-22T10:44:04.502Z,115104.00
2018-06-22T10:45:04.528Z,112896.00
2018-06-22T10:46:04.609Z,46592.00
2018-06-22T10:47:04.588Z,60032.00
2018-06-22T10:48:04.616Z,56000.00
2018-06-22T10:49:04.666Z,127072.00
2018-06-22T10:50:04.687Z,68256.00
2018-06-22T10:51:04.711Z,30272.00
2018-06-22T10:52:04.743Z,29952.00
2018-06-22T10:53:04.768Z,21056.00
2018-06-22T10:54:04.812Z,16856.00
2018-06-22T10:55:04.838Z,19584.00
2018-06-22T10:56:04.877Z,29664.00
2018-06-22T10:57:04.904Z,116096.00
2018-06-22T10:58:04.939Z,124512.00
2018-06-22T10:59:04.965Z,113024.00
2018-06-22T11:00:05.005Z,132416.00
2018-06-22T11:01:05.030Z,78656.00
2018-06-22T11:02:05.057Z,31168.00
2018-06-22T11:03:05.095Z,26016.00
2018-06-22T11:04:05.131Z,28576.00
2018-06-22T11:05:05.159Z,31360.00
2018-06-22T11:06:05.200Z,128768.00
2018-06-22T11:07:05.227Z,58208.00
2018-06-22T11:08:05.262Z,27232.00
2018-06-22T11:09:05.283Z,20576.00
2018-06-22T11:10:05.327Z,13720.00
2018-06-22T11:11:05.353Z,7660.00
2018-06-22T11:12:05.383Z,3992.00
2018-06-22T11:13:05.419Z,2288.00
2018-06-22T11:14:05.535Z,2416.00
2018-06-22T11:15:05.480Z,2888.00
2018-06-22T11:16:05.517Z,2968.00
2018-06-22T11:17:05.550Z,2848.00
2018-06-22T11:18:05.558Z,2908.00
2018-06-22T11:19:05.600Z,2856.00
2018-06-22T11:20:05.633Z,2884.00
2018-06-22T11:21:05.646Z,2928.00
2018-06-22T11:22:05.675Z,2992.00
2018-06-22T11:23:05.701Z,3088.00
2018-06-22T11:24:05.725Z,3228.00
2018-06-22T11:25:05.751Z,3440.00
2018-06-22T11:26:05.784Z,3816.00
2018-06-22T11:27:05.796Z,4380.00
2018-06-22T11:28:05.820Z,5016.00
2018-06-22T11:29:05.846Z,5812.00
2018-06-22T11:30:05.867Z,6656.00
2018-06-22T11:31:05.896Z,7560.00
2018-06-22T11:32:05.961Z,8468.00
2018-06-22T11:33:05.936Z,9568.00
2018-06-22T11:34:05.957Z,11016.00
2018-06-22T11:35:05.983Z,12984.00
2018-06-22T11:36:06.000Z,15296.00
2018-06-22T11:37:06.026Z,17860.00
2018-06-22T11:38:06.057Z,20096.00
2018-06-22T11:39:06.072Z,36480.00
2018-06-22T11:40:06.089Z,79424.00
2018-06-22T11:41:06.114Z,55616.00
2018-06-22T11:42:06.134Z,74848.00
2018-06-22T11:43:06.159Z,47456.00
2018-06-22T11:44:06.187Z,21888.00
2018-06-22T11:45:06.201Z,25856.00
2018-06-22T11:46:06.221Z,51744.00
2018-06-22T11:47:06.248Z,82208.00
2018-06-22T11:48:06.280Z,36832.00
2018-06-22T11:49:06.292Z,59840.00
2018-06-22T11:50:06.314Z,30240.00
2018-06-22T11:51:06.361Z,27776.00
2018-06-22T11:52:06.364Z,100288.00
2018-06-22T11:53:06.390Z,98912.00
2018-06-22T11:54:06.409Z,96448.00
2018-06-22T11:55:06.432Z,93728.00
2018-06-22T11:56:06.456Z,91872.00
2018-06-22T11:57:06.482Z,16100.00
2018-06-22T11:58:06.512Z,15960.00
2018-06-22T11:59:06.561Z,14920.00
2018-06-22T12:00:06.563Z,13644.00
2018-06-22T12:01:06.588Z,13104.00
2018-06-22T12:02:06.610Z,15860.00
2018-06-22T12:03:06.636Z,10588.00
2018-06-22T12:04:06.662Z,7648.00
2018-06-22T12:05:06.689Z,6284.00
2018-06-22T12:06:06.721Z,7268.00
2018-06-22T12:07:06.744Z,11664.00
2018-06-22T12:08:06.761Z,15680.00
2018-06-22T12:09:06.786Z,19232.00
2018-06-22T12:10:06.813Z,32512.00
2018-06-22T12:11:06.834Z,44640.00